createdAt,value
2019-03-01T00:02:08.514Z,29.50
2019-03-01T00:04:50.554Z,27.70
2019-03-01T00:07:32.553Z,31.63
2019-03-01T00:10:14.502Z,27.57
2019-03-01T00:15:38.329Z,31.93
2019-03-01T00:21:04.152Z,27.27
2019-03-01T00:23:46.248Z,29.80
2019-03-01T00:26:28.023Z,27.70
2019-03-01T00:29:09.596Z,28.40
2019-03-01T00:31:52.499Z,31.85
2019-03-01T00:34:36.765Z,33.20
2019-03-01T00:37:19.801Z,33.77
2019-03-01T00:40:03.746Z,30.13
2019-03-01T00:42:46.747Z,31.73
2019-03-01T00:45:29.822Z,31.40
2019-03-01T00:48:12.007Z,37.53
2019-03-01T00:50:55.901Z,31.33
2019-03-01T00:53:37.797Z,29.33
2019-03-01T00:56:19.586Z,31.10
2019-03-01T00:59:02.774Z,26.77
2019-03-01T01:01:45.122Z,28.60
2019-03-01T01:04:27.154Z,33.13
2019-03-01T01:07:09.420Z,29.03
2019-03-01T01:09:52.338Z,36.73
2019-03-01T01:12:36.494Z,27.47
2019-03-01T01:15:19.194Z,30.87
2019-03-01T01:18:00.897Z,34.23
2019-03-01T01:20:44.983Z,33.73
2019-03-01T01:23:28.775Z,33.30
2019-03-01T01:26:11.580Z,32.87
2019-03-01T01:28:55.645Z,28.67
2019-03-01T01:31:37.558Z,37.40
2019-03-01T01:34:20.551Z,33.27
2019-03-01T01:37:03.057Z,28.47
2019-03-01T01:39:46.880Z,29.00
2019-03-01T01:42:30.824Z,31.53
2019-03-01T01:45:14.590Z,33.37
2019-03-01T01:47:56.448Z,26.50
2019-03-01T01:50:38.325Z,27.67
2019-03-01T01:53:21.042Z,29.43
2019-03-01T01:56:05.197Z,32.37
2019-03-01T01:58:47.403Z,28.00
2019-03-01T02:01:31.393Z,29.57
2019-03-01T02:04:13.437Z,27.37
2019-03-01T02:06:55.454Z,32.23
2019-03-01T02:09:38.394Z,34.30
2019-03-01T02:12:22.308Z,32.57
2019-03-01T02:15:05.524Z,34.00
2019-03-01T02:17:47.951Z,27.83
2019-03-01T02:20:30.074Z,27.80
2019-03-01T02:23:11.818Z,30.30
2019-03-01T02:25:53.837Z,25.97
2019-03-01T02:28:35.668Z,23.73
2019-03-01T02:31:17.680Z,24.60
2019-03-01T02:33:59.907Z,22.43
2019-03-01T02:36:41.980Z,27.90
2019-03-01T02:39:23.925Z,24.20
2019-03-01T02:42:05.686Z,29.43
2019-03-01T02:44:49.661Z,26.37
2019-03-01T02:47:31.562Z,22.87
2019-03-01T02:50:15.735Z,23.77
2019-03-01T02:52:59.921Z,20.27
2019-03-01T02:55:43.959Z,23.27
2019-03-01T02:58:25.957Z,21.43
2019-03-01T03:01:08.143Z,21.00
2019-03-01T03:03:50.112Z,21.50
2019-03-01T03:09:38.596Z,25.83
2019-03-01T03:12:20.532Z,24.43
2019-03-01T03:15:02.449Z,22.73
2019-03-01T03:17:44.316Z,21.30
2019-03-01T03:20:26.600Z,21.70
2019-03-01T03:23:08.875Z,24.30
2019-03-01T03:25:51.715Z,20.03
2019-03-01T03:28:37.474Z,18.97
2019-03-01T03:31:19.097Z,25.40
2019-03-01T03:34:02.186Z,20.73
2019-03-01T03:36:44.938Z,24.77
2019-03-01T03:39:26.959Z,19.40
2019-03-01T03:42:08.909Z,18.20
2019-03-01T03:44:50.982Z,23.87
2019-03-01T03:47:33.236Z,21.00
2019-03-01T03:50:17.266Z,25.73
2019-03-01T03:53:01.417Z,25.03
2019-03-01T03:55:32.203Z,26.57
2019-03-01T03:58:14.882Z,23.87
2019-03-01T04:01:01.026Z,24.33
2019-03-01T04:03:42.748Z,19.03
2019-03-01T04:06:26.741Z,21.97
2019-03-01T04:09:08.705Z,29.40
2019-03-01T04:11:51.245Z,19.93
2019-03-01T04:14:33.347Z,26.73
2019-03-01T04:17:15.279Z,22.37
2019-03-01T04:19:57.093Z,26.40
2019-03-01T04:22:40.974Z,22.33
2019-03-01T04:25:26.433Z,22.40
2019-03-01T04:28:07.267Z,24.20
2019-03-01T04:30:49.069Z,24.98
2019-03-01T04:33:33.516Z,21.73
2019-03-01T04:36:04.887Z,17.47
2019-03-01T04:38:46.917Z,21.53
2019-03-01T04:41:28.821Z,22.47
2019-03-01T04:44:10.968Z,18.67
2019-03-01T04:46:53.617Z,23.73
2019-03-01T04:49:37.244Z,25.53
2019-03-01T04:52:19.484Z,21.67
2019-03-01T04:55:03.395Z,22.53
2019-03-01T04:57:45.551Z,20.20
2019-03-01T05:00:27.491Z,22.20
2019-03-01T05:03:09.208Z,24.20
2019-03-01T05:05:51.009Z,21.27
2019-03-01T05:08:32.903Z,18.40
2019-03-01T05:11:16.984Z,28.83
2019-03-01T05:14:01.076Z,18.17
2019-03-01T05:16:43.402Z,19.97
2019-03-01T05:19:25.505Z,19.45
2019-03-01T05:22:07.563Z,20.53
2019-03-01T05:24:48.055Z,16.77
2019-03-01T05:27:28.726Z,21.17
2019-03-01T05:30:11.525Z,23.23
2019-03-01T05:35:42.475Z,26.97
2019-03-01T05:41:12.871Z,22.93
2019-03-01T05:46:42.285Z,16.27
2019-03-01T05:49:22.958Z,23.43
2019-03-01T05:52:05.611Z,20.67
2019-03-01T05:54:47.117Z,18.10
2019-03-01T05:57:29.837Z,24.43
2019-03-01T06:00:11.312Z,24.90
2019-03-01T06:02:52.884Z,20.57
2019-03-01T06:05:35.003Z,21.40
2019-03-01T06:08:17.996Z,22.03
2019-03-01T06:11:00.082Z,25.33
2019-03-01T06:13:42.953Z,23.33
2019-03-01T06:16:24.968Z,25.17
2019-03-01T06:19:09.057Z,23.90
2019-03-01T06:21:51.000Z,20.73
2019-03-01T06:24:32.716Z,15.63
2019-03-01T06:27:16.365Z,21.00
2019-03-01T06:30:00.470Z,14.03
2019-03-01T06:32:42.403Z,26.97
2019-03-01T06:35:24.534Z,21.60
2019-03-01T06:38:06.770Z,21.70
2019-03-01T06:43:34.475Z,17.70
2019-03-01T06:46:17.472Z,16.00
2019-03-01T06:49:03.807Z,13.70
2019-03-01T06:51:46.153Z,16.13
2019-03-01T06:54:28.141Z,12.47
2019-03-01T06:57:12.495Z,9.70
2019-03-01T06:59:54.511Z,14.47
2019-03-01T07:02:42.558Z,15.63
2019-03-01T07:05:24.500Z,12.70
2019-03-01T07:08:08.687Z,16.23
2019-03-01T07:10:50.557Z,18.33
2019-03-01T07:13:34.654Z,15.43
2019-03-01T07:16:18.467Z,11.27
2019-03-01T07:19:00.458Z,12.37
2019-03-01T07:21:42.701Z,13.93
2019-03-01T07:24:26.939Z,18.10
2019-03-01T07:27:12.314Z,13.85
2019-03-01T07:29:54.489Z,15.30
2019-03-01T07:32:36.180Z,7.13
2019-03-01T07:35:18.257Z,10.43
2019-03-01T07:38:00.608Z,10.87
2019-03-01T07:40:42.289Z,11.00
2019-03-01T07:43:24.407Z,13.35
2019-03-01T07:46:08.640Z,8.60
2019-03-01T07:48:50.707Z,12.10
2019-03-01T07:51:36.007Z,9.87
2019-03-01T07:54:18.477Z,12.37
2019-03-01T07:57:02.545Z,14.30
2019-03-01T07:59:46.473Z,11.40
2019-03-01T08:02:28.318Z,8.83
2019-03-01T08:05:10.437Z,11.80
2019-03-01T08:07:56.024Z,14.97
2019-03-01T08:10:36.025Z,12.03
2019-03-01T08:13:18.484Z,10.23
2019-03-01T08:16:00.708Z,16.10
2019-03-01T08:18:46.633Z,13.53
2019-03-01T08:21:28.504Z,12.10
2019-03-01T08:24:11.125Z,13.20
2019-03-01T08:26:53.711Z,9.13
2019-03-01T08:29:35.915Z,13.50
2019-03-01T08:32:17.788Z,12.37
2019-03-01T08:35:00.022Z,12.63
2019-03-01T08:37:41.974Z,12.33
2019-03-01T08:40:24.165Z,14.50
2019-03-01T08:43:11.696Z,14.13
2019-03-01T08:45:51.998Z,17.30
2019-03-01T08:48:39.844Z,10.23
2019-03-01T08:51:26.539Z,13.13
2019-03-01T08:54:08.184Z,9.50
2019-03-01T08:56:52.621Z,12.27
2019-03-01T08:59:34.357Z,12.53
2019-03-01T09:02:16.347Z,14.70
2019-03-01T09:04:59.344Z,13.57
2019-03-01T09:07:43.630Z,8.50
2019-03-01T09:13:36.200Z,8.95
2019-03-01T09:16:18.381Z,4.47
2019-03-01T09:19:00.982Z,5.37
2019-03-01T09:21:50.018Z,5.70
2019-03-01T09:24:31.068Z,5.50
2019-03-01T09:27:15.373Z,8.48
2019-03-01T09:29:59.420Z,5.25
2019-03-01T09:32:41.554Z,2.77
2019-03-01T09:38:31.456Z,5.37
2019-03-01T09:41:13.024Z,4.12
2019-03-01T09:43:54.832Z,3.80
2019-03-01T09:46:36.374Z,1.70
2019-03-01T09:49:21.491Z,3.35
2019-03-01T09:52:01.962Z,5.20
2019-03-01T09:54:44.950Z,8.00
2019-03-01T09:57:29.033Z,2.08
2019-03-01T10:00:11.836Z,2.90
2019-03-01T10:02:53.549Z,2.98
2019-03-01T10:05:35.436Z,1.87
2019-03-01T10:08:19.267Z,4.87
2019-03-01T10:11:03.316Z,2.62
2019-03-01T10:13:47.688Z,3.83
2019-03-01T10:16:29.524Z,2.55
2019-03-01T10:19:13.505Z,5.40
2019-03-01T10:21:55.495Z,2.83
2019-03-01T10:24:38.367Z,6.50
2019-03-01T10:27:20.416Z,5.70
2019-03-01T10:30:04.309Z,3.98
2019-03-01T10:32:47.310Z,1.70
2019-03-01T10:35:28.960Z,3.70
2019-03-01T10:38:11.238Z,3.70
2019-03-01T10:40:53.105Z,6.15
2019-03-01T10:43:36.172Z,2.12
2019-03-01T10:46:20.236Z,1.92
2019-03-01T10:49:02.056Z,2.08
2019-03-01T10:51:45.985Z,2.35
2019-03-01T10:54:27.749Z,3.35
2019-03-01T10:57:09.623Z,2.92
2019-03-01T10:59:52.472Z,4.90
2019-03-01T11:02:34.477Z,2.95
2019-03-01T11:05:16.672Z,3.00
2019-03-01T11:08:01.208Z,3.80
2019-03-01T11:10:43.360Z,2.02
2019-03-01T11:13:27.292Z,4.12
2019-03-01T11:16:11.297Z,5.55
2019-03-01T11:18:53.306Z,2.55
2019-03-01T11:21:36.201Z,2.50
2019-03-01T11:24:19.149Z,3.22
2019-03-01T11:27:01.349Z,3.10
2019-03-01T11:32:25.126Z,3.60
2019-03-01T11:35:07.434Z,3.90
2019-03-01T11:37:50.091Z,3.60
2019-03-01T11:40:32.154Z,2.05
2019-03-01T11:43:14.173Z,1.95
2019-03-01T11:45:56.188Z,2.22
2019-03-01T11:48:38.198Z,2.98
2019-03-01T11:51:20.300Z,6.47
2019-03-01T11:54:02.243Z,1.70
2019-03-01T11:56:44.449Z,2.55
2019-03-01T11:59:26.656Z,2.77
2019-03-01T12:04:51.948Z,2.40
2019-03-01T12:07:33.939Z,1.30
2019-03-01T12:10:16.617Z,2.17
2019-03-01T12:12:58.711Z,2.12
2019-03-01T12:15:40.865Z,2.35
2019-03-01T12:18:22.767Z,1.80
2019-03-01T12:21:04.613Z,1.32
2019-03-01T12:23:46.789Z,3.10
2019-03-01T12:26:29.006Z,3.12
2019-03-01T12:29:10.498Z,2.10
2019-03-01T12:31:53.586Z,1.47
2019-03-01T12:34:35.893Z,1.10
2019-03-01T12:37:18.329Z,2.02
2019-03-01T12:40:00.380Z,2.25
2019-03-01T12:42:45.059Z,4.53
2019-03-01T12:45:29.081Z,4.70
2019-03-01T12:51:19.293Z,3.02
2019-03-01T12:54:01.401Z,2.25
2019-03-01T12:56:43.223Z,2.83
2019-03-01T12:59:24.891Z,3.52
2019-03-01T13:02:08.009Z,4.05
2019-03-01T13:04:53.581Z,1.55
2019-03-01T13:07:36.533Z,2.37
2019-03-01T13:10:18.869Z,2.25
2019-03-01T13:13:02.248Z,2.95
2019-03-01T13:15:45.434Z,1.80
2019-03-01T13:18:28.416Z,5.17
2019-03-01T13:21:12.910Z,4.27
2019-03-01T13:23:57.720Z,4.80
2019-03-01T13:26:40.797Z,2.80
2019-03-01T13:29:23.551Z,3.03
2019-03-01T13:32:05.395Z,6.37
2019-03-01T13:34:49.463Z,4.10
2019-03-01T13:37:31.632Z,3.73
2019-03-01T13:40:13.890Z,2.77
2019-03-01T13:42:55.999Z,3.37
2019-03-01T13:45:38.915Z,2.42
2019-03-01T13:48:22.804Z,3.67
2019-03-01T13:51:04.836Z,2.87
2019-03-01T13:53:49.214Z,2.57
2019-03-01T13:56:32.840Z,3.00
2019-03-01T13:59:14.733Z,6.40
2019-03-01T14:01:56.414Z,2.63
2019-03-01T14:04:41.189Z,2.98
2019-03-01T14:07:25.280Z,3.67
2019-03-01T14:10:08.406Z,4.10
2019-03-01T14:12:51.687Z,1.90
2019-03-01T14:15:38.285Z,2.93
2019-03-01T14:18:21.205Z,2.03
2019-03-01T14:21:03.949Z,1.97
2019-03-01T14:23:47.301Z,2.00
2019-03-01T14:26:31.141Z,3.10
2019-03-01T14:29:15.982Z,1.87
2019-03-01T14:31:58.367Z,2.20
2019-03-01T14:34:41.051Z,3.37
2019-03-01T14:37:23.034Z,3.63
2019-03-01T14:40:05.117Z,2.03
2019-03-01T14:42:48.280Z,4.13
2019-03-01T14:45:30.179Z,2.95
2019-03-01T14:48:11.985Z,2.17
2019-03-01T14:50:55.992Z,1.60
2019-03-01T14:53:37.920Z,2.30
2019-03-01T14:56:21.546Z,1.80
2019-03-01T14:59:03.474Z,4.77
2019-03-01T15:01:46.074Z,1.83
2019-03-01T15:04:29.650Z,1.60
2019-03-01T15:07:11.827Z,2.87
2019-03-01T15:09:57.149Z,1.30
2019-03-01T15:12:39.524Z,4.27
2019-03-01T15:15:22.916Z,4.37
2019-03-01T15:18:06.283Z,4.07
2019-03-01T15:20:49.301Z,2.17
2019-03-01T15:23:33.368Z,3.77
2019-03-01T15:26:16.010Z,3.90
2019-03-01T15:28:58.950Z,1.70
2019-03-01T15:31:41.402Z,3.83
2019-03-01T15:34:25.592Z,3.23
2019-03-01T15:37:07.683Z,3.10
2019-03-01T15:39:54.253Z,4.43
2019-03-01T15:42:35.860Z,4.17
2019-03-01T15:45:20.109Z,3.37
2019-03-01T15:48:05.233Z,1.80
2019-03-01T15:50:47.401Z,2.20
2019-03-01T15:53:29.397Z,2.07
2019-03-01T15:56:11.497Z,2.50
2019-03-01T15:58:53.679Z,2.00
2019-03-01T16:01:35.468Z,5.13
2019-03-01T16:04:17.992Z,4.80
2019-03-01T16:06:59.970Z,3.43
2019-03-01T16:09:41.733Z,7.20
2019-03-01T16:12:23.617Z,11.03
2019-03-01T16:15:06.091Z,2.83
2019-03-01T16:17:47.806Z,3.50
2019-03-01T16:20:29.738Z,2.03
2019-03-01T16:23:13.917Z,3.30
2019-03-01T16:25:58.100Z,3.60
2019-03-01T16:28:42.363Z,6.60
2019-03-01T16:31:24.479Z,3.37
2019-03-01T16:34:07.535Z,7.43
2019-03-01T16:36:52.152Z,3.50
2019-03-01T16:42:17.944Z,2.00
2019-03-01T16:45:00.591Z,1.90
2019-03-01T16:47:44.324Z,1.97
2019-03-01T16:50:26.446Z,6.13
2019-03-01T16:53:10.948Z,3.43
2019-03-01T16:55:52.944Z,3.07
2019-03-01T16:58:35.475Z,3.40
2019-03-01T17:01:17.337Z,2.33
2019-03-01T17:03:59.377Z,4.33
2019-03-01T17:06:41.389Z,4.63
2019-03-01T17:09:23.282Z,6.77
2019-03-01T17:12:07.448Z,5.73
2019-03-01T17:14:49.722Z,5.47
2019-03-01T17:17:33.156Z,5.37
2019-03-01T17:20:15.677Z,2.47
2019-03-01T17:23:02.838Z,3.10
2019-03-01T17:25:44.941Z,10.50
2019-03-01T17:28:27.303Z,9.15
2019-03-01T17:31:10.123Z,5.13
2019-03-01T17:33:53.599Z,3.23
2019-03-01T17:36:36.512Z,1.90
2019-03-01T17:39:20.072Z,3.13
2019-03-01T17:42:02.877Z,18.57
2019-03-01T17:44:47.034Z,4.70
2019-03-01T17:47:30.078Z,2.23
2019-03-01T17:50:13.900Z,3.67
2019-03-01T17:52:55.832Z,2.60
2019-03-01T17:55:38.440Z,2.23
2019-03-01T17:58:21.058Z,2.23
2019-03-01T18:01:03.859Z,2.50
2019-03-01T18:03:46.197Z,2.23
2019-03-01T18:06:30.001Z,2.22
2019-03-01T18:09:13.241Z,1.67
2019-03-01T18:11:57.187Z,1.70
2019-03-01T18:14:39.328Z,3.33
2019-03-01T18:17:20.910Z,4.23
2019-03-01T18:20:02.981Z,8.07
2019-03-01T18:22:47.119Z,1.73
2019-03-01T18:25:31.097Z,1.37
2019-03-01T18:28:15.340Z,2.90
2019-03-01T18:30:57.574Z,4.90
2019-03-01T18:33:39.365Z,6.70
2019-03-01T18:36:21.704Z,52.50
2019-03-01T18:39:06.866Z,38.70
2019-03-01T18:41:49.238Z,3.37
2019-03-01T18:44:31.648Z,3.80
2019-03-01T18:47:14.223Z,3.60
2019-03-01T18:49:56.220Z,3.17
2019-03-01T18:52:38.295Z,4.63
2019-03-01T18:55:20.624Z,3.17
2019-03-01T18:58:03.588Z,5.53
2019-03-01T19:00:47.656Z,4.80
2019-03-01T19:03:29.689Z,5.73
2019-03-01T19:06:16.293Z,105.30
2019-03-01T19:08:57.281Z,66.43
2019-03-01T19:11:38.918Z,10.63
2019-03-01T19:14:20.976Z,6.60
2019-03-01T19:17:05.031Z,5.60
2019-03-01T19:19:48.456Z,5.57
2019-03-01T19:22:30.489Z,6.17
2019-03-01T19:25:12.689Z,6.57
2019-03-01T19:27:56.712Z,7.93
2019-03-01T19:30:39.237Z,8.90
2019-03-01T19:33:20.897Z,7.33
2019-03-01T19:36:05.111Z,6.37
2019-03-01T19:38:48.820Z,5.43
2019-03-01T19:41:30.815Z,6.23
2019-03-01T19:44:15.492Z,5.73
2019-03-01T19:46:59.468Z,7.20
2019-03-01T19:49:41.567Z,7.17
2019-03-01T19:52:23.348Z,5.30
2019-03-01T19:55:08.031Z,8.40
2019-03-01T19:57:49.045Z,6.87
2019-03-01T20:00:31.473Z,6.73
2019-03-01T20:03:15.403Z,3.77
2019-03-01T20:05:59.479Z,4.00
2019-03-01T20:08:43.464Z,3.90
2019-03-01T20:11:27.538Z,5.07
2019-03-01T20:14:13.157Z,3.73
2019-03-01T20:16:58.202Z,6.07
2019-03-01T20:19:40.780Z,4.87
2019-03-01T20:22:25.132Z,5.20
2019-03-01T20:25:08.908Z,4.30
2019-03-01T20:27:52.948Z,6.40
2019-03-01T20:30:34.918Z,5.17
2019-03-01T20:33:18.002Z,4.83
2019-03-01T20:36:02.446Z,5.37
2019-03-01T20:38:45.452Z,4.47
2019-03-01T20:41:27.370Z,5.53
2019-03-01T20:44:09.289Z,4.97
2019-03-01T20:49:35.715Z,4.45
2019-03-01T20:52:18.106Z,4.57
2019-03-01T20:55:00.690Z,5.67
2019-03-01T20:57:44.207Z,4.40
2019-03-01T21:00:27.121Z,5.63
2019-03-01T21:03:09.483Z,4.00
2019-03-01T21:05:51.569Z,6.03
2019-03-01T21:08:33.807Z,3.80
2019-03-01T21:11:15.721Z,3.50
2019-03-01T21:13:57.721Z,5.20
2019-03-01T21:16:41.441Z,4.47
2019-03-01T21:19:24.607Z,5.17
2019-03-01T21:22:06.830Z,3.90
2019-03-01T21:24:49.075Z,4.17
2019-03-01T21:27:30.955Z,4.23
2019-03-01T21:30:13.042Z,4.37
2019-03-01T21:32:55.443Z,5.13
2019-03-01T21:35:39.722Z,4.80
2019-03-01T21:38:23.971Z,6.63
2019-03-01T21:41:06.313Z,5.37
2019-03-01T21:43:51.513Z,4.67
2019-03-01T21:46:35.527Z,5.03
2019-03-01T21:49:06.074Z,4.17
2019-03-01T21:51:56.051Z,5.60
2019-03-01T21:54:48.647Z,4.97
2019-03-01T21:57:32.310Z,5.10
2019-03-01T22:00:15.569Z,4.77
2019-03-01T22:03:00.298Z,5.17
2019-03-01T22:05:45.398Z,5.13
2019-03-01T22:08:27.674Z,8.53
2019-03-01T22:11:10.542Z,5.67
2019-03-01T22:13:55.388Z,5.77
2019-03-01T22:16:39.423Z,7.20
2019-03-01T22:19:23.186Z,6.25
2019-03-01T22:22:07.390Z,6.97
2019-03-01T22:24:49.490Z,7.13
2019-03-01T22:27:32.035Z,8.50
2019-03-01T22:30:14.168Z,9.97
2019-03-01T22:32:57.653Z,10.23
2019-03-01T22:35:43.525Z,10.17
2019-03-01T22:38:24.869Z,10.97
2019-03-01T22:41:07.848Z,7.93
2019-03-01T22:43:52.045Z,8.87
2019-03-01T22:46:34.037Z,10.00
2019-03-01T22:49:15.633Z,14.27
2019-03-01T22:51:57.320Z,12.43
2019-03-01T22:54:41.400Z,11.70
2019-03-01T22:57:26.038Z,11.60
2019-03-01T23:00:07.962Z,9.70
2019-03-01T23:02:52.010Z,11.97
2019-03-01T23:05:39.211Z,11.08
2019-03-01T23:08:23.365Z,10.17
2019-03-01T23:11:05.046Z,9.53
2019-03-01T23:13:48.261Z,12.17
2019-03-01T23:16:32.095Z,10.90
2019-03-01T23:19:16.201Z,9.90
2019-03-01T23:22:00.291Z,13.93
2019-03-01T23:24:45.943Z,12.30
2019-03-01T23:27:28.435Z,11.23
2019-03-01T23:30:12.240Z,10.90
2019-03-01T23:32:55.890Z,9.43
2019-03-01T23:35:38.473Z,8.57
2019-03-01T23:38:20.593Z,10.77
2019-03-01T23:41:02.555Z,9.87
2019-03-01T23:43:44.281Z,11.10
2019-03-01T23:46:28.557Z,11.60
2019-03-01T23:49:10.189Z,11.03
2019-03-01T23:51:53.231Z,10.13
2019-03-01T23:54:37.175Z,11.40
2019-03-01T23:57:20.119Z,10.83
